sensor_id;sensor_type;location;lat;lon;timestamp;P1;durP1;ratioP1;P2;durP2;ratioP2
36253;SDS011;22291;52.250;21.228;2023-04-15T00:00:56;14.78;;;8.80;;
36253;SDS011;22291;52.250;21.228;2023-04-15T00:03:27;13.68;;;9.00;;
36253;SDS011;22291;52.250;21.228;2023-04-15T00:05:54;15.13;;;8.68;;
36253;SDS011;22291;52.250;21.228;2023-04-15T00:08:20;15.53;;;8.65;;
36253;SDS011;22291;52.250;21.228;2023-04-15T00:10:47;12.85;;;9.18;;
36253;SDS011;22291;52.250;21.228;2023-04-15T00:13:14;14.93;;;9.43;;
36253;SDS011;22291;52.250;21.228;2023-04-15T00:15:41;15.63;;;8.88;;
36253;SDS011;22291;52.250;21.228;2023-04-15T00:18:07;13.00;;;9.13;;
36253;SDS011;22291;52.250;21.228;2023-04-15T00:20:34;13.55;;;9.25;;
36253;SDS011;22291;52.250;21.228;2023-04-15T00:23:02;12.18;;;8.45;;
36253;SDS011;22291;52.250;21.228;2023-04-15T00:25:28;12.45;;;8.93;;
36253;SDS011;22291;52.250;21.228;2023-04-15T00:27:54;15.53;;;9.25;;
36253;SDS011;22291;52.250;21.228;2023-04-15T00:30:21;13.70;;;8.95;;
36253;SDS011;22291;52.250;21.228;2023-04-15T00:32:48;17.17;;;9.95;;
36253;SDS011;22291;52.250;21.228;2023-04-15T00:35:14;11.45;;;8.75;;
36253;SDS011;22291;52.250;21.228;2023-04-15T00:37:42;13.08;;;9.03;;
36253;SDS011;22291;52.250;21.228;2023-04-15T00:40:10;17.50;;;9.20;;
36253;SDS011;22291;52.250;21.228;2023-04-15T00:45:04;11.30;;;8.10;;
36253;SDS011;22291;52.250;21.228;2023-04-15T00:47:34;14.25;;;8.88;;
36253;SDS011;22291;52.250;21.228;2023-04-15T00:50:03;12.37;;;8.75;;
36253;SDS011;22291;52.250;21.228;2023-04-15T00:52:31;13.38;;;8.80;;
36253;SDS011;22291;52.250;21.228;2023-04-15T00:54:58;13.35;;;9.18;;
36253;SDS011;22291;52.250;21.228;2023-04-15T00:57:25;12.65;;;8.90;;
36253;SDS011;22291;52.250;21.228;2023-04-15T00:59:54;12.80;;;8.95;;
36253;SDS011;22291;52.250;21.228;2023-04-15T01:02:22;11.25;;;8.73;;
36253;SDS011;22291;52.250;21.228;2023-04-15T01:04:49;12.80;;;8.85;;
36253;SDS011;22291;52.250;21.228;2023-04-15T01:07:16;15.15;;;9.88;;
36253;SDS011;22291;52.250;21.228;2023-04-15T01:09:43;14.83;;;9.20;;
36253;SDS011;22291;52.250;21.228;2023-04-15T01:12:13;12.33;;;8.85;;
36253;SDS011;22291;52.250;21.228;2023-04-15T01:14:42;13.08;;;9.15;;
36253;SDS011;22291;52.250;21.228;2023-04-15T01:17:08;13.83;;;9.03;;
36253;SDS011;22291;52.250;21.228;2023-04-15T01:19:39;13.68;;;9.55;;
36253;SDS011;22291;52.250;21.228;2023-04-15T01:22:03;12.25;;;8.50;;
36253;SDS011;22291;52.250;21.228;2023-04-15T01:24:30;14.38;;;9.05;;
36253;SDS011;22291;52.250;21.228;2023-04-15T01:26:58;20.17;;;10.03;;
36253;SDS011;22291;52.250;21.228;2023-04-15T01:29:25;12.60;;;8.38;;
36253;SDS011;22291;52.250;21.228;2023-04-15T01:31:53;14.60;;;9.75;;
36253;SDS011;22291;52.250;21.228;2023-04-15T01:34:21;15.20;;;10.40;;
36253;SDS011;22291;52.250;21.228;2023-04-15T01:36:48;16.60;;;10.03;;
36253;SDS011;22291;52.250;21.228;2023-04-15T01:39:14;14.05;;;9.95;;
36253;SDS011;22291;52.250;21.228;2023-04-15T01:41:40;15.48;;;10.28;;
36253;SDS011;22291;52.250;21.228;2023-04-15T01:44:07;15.75;;;10.48;;
36253;SDS011;22291;52.250;21.228;2023-04-15T01:46:34;15.25;;;10.63;;
36253;SDS011;22291;52.250;21.228;2023-04-15T01:49:01;17.90;;;10.90;;
36253;SDS011;22291;52.250;21.228;2023-04-15T01:51:28;17.87;;;10.10;;
36253;SDS011;22291;52.250;21.228;2023-04-15T01:53:54;16.37;;;10.98;;
36253;SDS011;22291;52.250;21.228;2023-04-15T01:56:23;17.27;;;10.65;;
36253;SDS011;22291;52.250;21.228;2023-04-15T01:58:50;13.35;;;9.83;;
36253;SDS011;22291;52.250;21.228;2023-04-15T02:01:17;15.18;;;10.05;;
36253;SDS011;22291;52.250;21.228;2023-04-15T02:03:44;15.00;;;9.23;;
36253;SDS011;22291;52.250;21.228;2023-04-15T02:06:12;14.75;;;10.72;;
36253;SDS011;22291;52.250;21.228;2023-04-15T02:08:38;16.82;;;11.05;;
36253;SDS011;22291;52.250;21.228;2023-04-15T02:11:05;15.30;;;10.50;;
36253;SDS011;22291;52.250;21.228;2023-04-15T02:13:32;19.00;;;11.28;;
36253;SDS011;22291;52.250;21.228;2023-04-15T02:15:58;16.42;;;10.63;;
36253;SDS011;22291;52.250;21.228;2023-04-15T02:18:24;18.60;;;11.48;;
36253;SDS011;22291;52.250;21.228;2023-04-15T02:20:51;18.85;;;11.20;;
36253;SDS011;22291;52.250;21.228;2023-04-15T02:23:18;17.45;;;11.60;;
36253;SDS011;22291;52.250;21.228;2023-04-15T02:25:45;18.40;;;11.53;;
36253;SDS011;22291;52.250;21.228;2023-04-15T02:28:12;18.12;;;12.18;;
36253;SDS011;22291;52.250;21.228;2023-04-15T02:30:38;16.02;;;11.50;;
36253;SDS011;22291;52.250;21.228;2023-04-15T02:33:05;15.88;;;10.80;;
36253;SDS011;22291;52.250;21.228;2023-04-15T02:35:32;15.53;;;10.53;;
36253;SDS011;22291;52.250;21.228;2023-04-15T02:37:58;14.38;;;10.05;;
36253;SDS011;22291;52.250;21.228;2023-04-15T02:40:25;17.52;;;11.65;;
36253;SDS011;22291;52.250;21.228;2023-04-15T02:42:52;16.45;;;10.50;;
36253;SDS011;22291;52.250;21.228;2023-04-15T02:45:18;17.82;;;12.13;;
36253;SDS011;22291;52.250;21.228;2023-04-15T02:47:46;19.75;;;11.53;;
36253;SDS011;22291;52.250;21.228;2023-04-15T02:50:13;17.35;;;10.53;;
36253;SDS011;22291;52.250;21.228;2023-04-15T02:52:40;16.55;;;11.78;;
36253;SDS011;22291;52.250;21.228;2023-04-15T02:55:09;15.45;;;10.35;;
36253;SDS011;22291;52.250;21.228;2023-04-15T02:57:36;18.73;;;12.30;;
36253;SDS011;22291;52.250;21.228;2023-04-15T03:00:04;17.65;;;10.85;;
36253;SDS011;22291;52.250;21.228;2023-04-15T03:02:34;17.73;;;10.78;;
36253;SDS011;22291;52.250;21.228;2023-04-15T03:05:03;20.03;;;11.70;;
36253;SDS011;22291;52.250;21.228;2023-04-15T03:07:31;16.40;;;11.48;;
36253;SDS011;22291;52.250;21.228;2023-04-15T03:09:58;17.30;;;11.43;;
36253;SDS011;22291;52.250;21.228;2023-04-15T03:12:24;17.52;;;11.88;;
36253;SDS011;22291;52.250;21.228;2023-04-15T03:14:50;17.12;;;11.00;;
36253;SDS011;22291;52.250;21.228;2023-04-15T03:17:16;18.62;;;11.50;;
36253;SDS011;22291;52.250;21.228;2023-04-15T03:19:42;16.35;;;11.43;;
36253;SDS011;22291;52.250;21.228;2023-04-15T03:22:09;17.02;;;11.08;;
36253;SDS011;22291;52.250;21.228;2023-04-15T03:24:36;19.52;;;11.95;;
36253;SDS011;22291;52.250;21.228;2023-04-15T03:27:02;16.90;;;12.00;;
36253;SDS011;22291;52.250;21.228;2023-04-15T03:29:28;18.73;;;11.50;;
36253;SDS011;22291;52.250;21.228;2023-04-15T03:31:54;17.40;;;10.93;;
36253;SDS011;22291;52.250;21.228;2023-04-15T03:34:20;17.65;;;11.05;;
36253;SDS011;22291;52.250;21.228;2023-04-15T03:36:47;16.48;;;11.38;;
36253;SDS011;22291;52.250;21.228;2023-04-15T03:39:13;17.12;;;11.10;;
36253;SDS011;22291;52.250;21.228;2023-04-15T03:41:39;16.75;;;10.63;;
36253;SDS011;22291;52.250;21.228;2023-04-15T03:44:06;14.80;;;10.58;;
36253;SDS011;22291;52.250;21.228;2023-04-15T03:46:32;18.32;;;11.08;;
36253;SDS011;22291;52.250;21.228;2023-04-15T03:48:58;16.75;;;10.75;;
36253;SDS011;22291;52.250;21.228;2023-04-15T03:51:24;19.57;;;11.93;;
36253;SDS011;22291;52.250;21.228;2023-04-15T03:53:51;17.92;;;10.90;;
36253;SDS011;22291;52.250;21.228;2023-04-15T03:56:17;16.48;;;10.82;;
36253;SDS011;22291;52.250;21.228;2023-04-15T03:58:43;16.73;;;10.72;;
36253;SDS011;22291;52.250;21.228;2023-04-15T04:01:10;19.65;;;11.88;;
36253;SDS011;22291;52.250;21.228;2023-04-15T04:03:37;15.35;;;10.90;;
36253;SDS011;22291;52.250;21.228;2023-04-15T04:06:03;16.48;;;11.00;;
36253;SDS011;22291;52.250;21.228;2023-04-15T04:08:29;19.90;;;11.75;;
36253;SDS011;22291;52.250;21.228;2023-04-15T04:10:55;18.25;;;11.65;;
36253;SDS011;22291;52.250;21.228;2023-04-15T04:13:22;19.87;;;12.15;;
36253;SDS011;22291;52.250;21.228;2023-04-15T04:15:49;20.75;;;11.50;;
36253;SDS011;22291;52.250;21.228;2023-04-15T04:18:15;16.05;;;10.15;;
36253;SDS011;22291;52.250;21.228;2023-04-15T04:20:41;14.40;;;10.70;;
36253;SDS011;22291;52.250;21.228;2023-04-15T04:23:07;15.95;;;10.10;;
36253;SDS011;22291;52.250;21.228;2023-04-15T04:25:33;17.05;;;10.68;;
36253;SDS011;22291;52.250;21.228;2023-04-15T04:27:59;15.98;;;10.58;;
36253;SDS011;22291;52.250;21.228;2023-04-15T04:30:26;17.10;;;11.60;;
36253;SDS011;22291;52.250;21.228;2023-04-15T04:32:52;14.47;;;10.75;;
36253;SDS011;22291;52.250;21.228;2023-04-15T04:35:18;17.70;;;11.40;;
36253;SDS011;22291;52.250;21.228;2023-04-15T04:37:45;20.60;;;11.25;;
36253;SDS011;22291;52.250;21.228;2023-04-15T04:40:11;18.07;;;11.05;;
36253;SDS011;22291;52.250;21.228;2023-04-15T04:42:39;17.25;;;11.55;;
36253;SDS011;22291;52.250;21.228;2023-04-15T04:45:06;17.52;;;11.15;;
36253;SDS011;22291;52.250;21.228;2023-04-15T04:47:33;15.75;;;10.68;;
36253;SDS011;22291;52.250;21.228;2023-04-15T04:50:00;17.82;;;11.28;;
36253;SDS011;22291;52.250;21.228;2023-04-15T04:52:28;17.62;;;10.78;;
36253;SDS011;22291;52.250;21.228;2023-04-15T04:54:55;13.45;;;9.60;;
36253;SDS011;22291;52.250;21.228;2023-04-15T04:57:21;15.45;;;10.53;;
36253;SDS011;22291;52.250;21.228;2023-04-15T04:59:48;18.35;;;11.03;;
36253;SDS011;22291;52.250;21.228;2023-04-15T05:02:14;16.62;;;10.25;;
36253;SDS011;22291;52.250;21.228;2023-04-15T05:04:40;16.52;;;10.45;;
36253;SDS011;22291;52.250;21.228;2023-04-15T05:07:06;16.77;;;10.93;;
36253;SDS011;22291;52.250;21.228;2023-04-15T05:09:33;18.15;;;11.50;;
36253;SDS011;22291;52.250;21.228;2023-04-15T05:12:01;16.45;;;10.18;;
36253;SDS011;22291;52.250;21.228;2023-04-15T05:14:30;18.17;;;11.15;;
36253;SDS011;22291;52.250;21.228;2023-04-15T05:16:58;17.07;;;11.08;;
36253;SDS011;22291;52.250;21.228;2023-04-15T05:19:24;15.78;;;9.88;;
36253;SDS011;22291;52.250;21.228;2023-04-15T05:21:50;20.27;;;11.08;;
36253;SDS011;22291;52.250;21.228;2023-04-15T05:24:16;19.12;;;11.48;;
36253;SDS011;22291;52.250;21.228;2023-04-15T05:26:42;16.80;;;10.98;;
36253;SDS011;22291;52.250;21.228;2023-04-15T05:29:09;18.02;;;11.38;;
36253;SDS011;22291;52.250;21.228;2023-04-15T05:31:35;15.40;;;9.98;;
36253;SDS011;22291;52.250;21.228;2023-04-15T05:34:02;16.15;;;10.43;;
36253;SDS011;22291;52.250;21.228;2023-04-15T05:36:29;14.87;;;9.73;;
36253;SDS011;22291;52.250;21.228;2023-04-15T05:38:57;15.05;;;10.43;;
36253;SDS011;22291;52.250;21.228;2023-04-15T05:41:23;17.20;;;10.32;;
36253;SDS011;22291;52.250;21.228;2023-04-15T05:43:49;15.13;;;10.15;;
36253;SDS011;22291;52.250;21.228;2023-04-15T05:46:15;14.58;;;9.43;;
36253;SDS011;22291;52.250;21.228;2023-04-15T05:48:42;17.27;;;10.70;;
36253;SDS011;22291;52.250;21.228;2023-04-15T05:51:08;14.98;;;9.90;;
36253;SDS011;22291;52.250;21.228;2023-04-15T05:53:35;16.75;;;10.60;;
36253;SDS011;22291;52.250;21.228;2023-04-15T05:56:02;14.63;;;9.50;;
36253;SDS011;22291;52.250;21.228;2023-04-15T05:58:30;13.93;;;9.45;;
36253;SDS011;22291;52.250;21.228;2023-04-15T06:00:56;17.30;;;9.63;;
36253;SDS011;22291;52.250;21.228;2023-04-15T06:03:23;15.25;;;9.45;;
36253;SDS011;22291;52.250;21.228;2023-04-15T06:05:49;19.90;;;11.83;;
36253;SDS011;22291;52.250;21.228;2023-04-15T06:08:15;15.05;;;10.43;;
36253;SDS011;22291;52.250;21.228;2023-04-15T06:10:42;16.60;;;10.35;;
36253;SDS011;22291;52.250;21.228;2023-04-15T06:13:08;15.80;;;10.45;;
36253;SDS011;22291;52.250;21.228;2023-04-15T06:15:36;13.58;;;10.20;;
36253;SDS011;22291;52.250;21.228;2023-04-15T06:18:02;15.40;;;9.53;;
36253;SDS011;22291;52.250;21.228;2023-04-15T06:20:30;16.25;;;9.63;;
36253;SDS011;22291;52.250;21.228;2023-04-15T06:22:56;15.03;;;9.20;;
36253;SDS011;22291;52.250;21.228;2023-04-15T06:25:23;17.85;;;10.00;;
36253;SDS011;22291;52.250;21.228;2023-04-15T06:27:49;14.38;;;10.03;;
36253;SDS011;22291;52.250;21.228;2023-04-15T06:30:15;14.83;;;8.55;;
36253;SDS011;22291;52.250;21.228;2023-04-15T06:32:41;13.65;;;9.88;;
36253;SDS011;22291;52.250;21.228;2023-04-15T06:35:08;12.15;;;9.03;;
36253;SDS011;22291;52.250;21.228;2023-04-15T06:37:34;12.93;;;9.00;;
36253;SDS011;22291;52.250;21.228;2023-04-15T06:40:01;13.75;;;9.43;;
36253;SDS011;22291;52.250;21.228;2023-04-15T06:42:29;13.68;;;9.05;;
36253;SDS011;22291;52.250;21.228;2023-04-15T06:44:56;13.48;;;8.90;;
36253;SDS011;22291;52.250;21.228;2023-04-15T06:47:22;12.13;;;8.85;;
36253;SDS011;22291;52.250;21.228;2023-04-15T06:49:49;12.30;;;9.10;;
36253;SDS011;22291;52.250;21.228;2023-04-15T06:52:15;11.97;;;8.03;;
36253;SDS011;22291;52.250;21.228;2023-04-15T06:54:42;11.33;;;8.70;;
36253;SDS011;22291;52.250;21.228;2023-04-15T06:57:08;13.85;;;8.83;;
36253;SDS011;22291;52.250;21.228;2023-04-15T06:59:35;11.78;;;8.85;;
36253;SDS011;22291;52.250;21.228;2023-04-15T07:02:02;12.88;;;9.03;;
36253;SDS011;22291;52.250;21.228;2023-04-15T07:04:28;15.80;;;9.03;;
36253;SDS011;22291;52.250;21.228;2023-04-15T07:06:54;11.20;;;8.38;;
36253;SDS011;22291;52.250;21.228;2023-04-15T07:09:22;12.80;;;8.55;;
36253;SDS011;22291;52.250;21.228;2023-04-15T07:11:50;12.15;;;8.18;;
36253;SDS011;22291;52.250;21.228;2023-04-15T07:14:17;12.73;;;8.88;;
36253;SDS011;22291;52.250;21.228;2023-04-15T07:16:43;13.53;;;8.85;;
36253;SDS011;22291;52.250;21.228;2023-04-15T07:19:09;11.08;;;8.05;;
36253;SDS011;22291;52.250;21.228;2023-04-15T07:21:36;11.38;;;7.97;;
36253;SDS011;22291;52.250;21.228;2023-04-15T07:24:03;9.90;;;6.97;;
36253;SDS011;22291;52.250;21.228;2023-04-15T07:26:31;10.32;;;7.95;;
36253;SDS011;22291;52.250;21.228;2023-04-15T07:28:57;11.97;;;8.05;;
36253;SDS011;22291;52.250;21.228;2023-04-15T07:31:23;9.88;;;7.03;;
36253;SDS011;22291;52.250;21.228;2023-04-15T07:33:50;10.40;;;7.47;;
36253;SDS011;22291;52.250;21.228;2023-04-15T07:36:16;9.00;;;6.80;;
36253;SDS011;22291;52.250;21.228;2023-04-15T07:38:43;10.88;;;7.95;;
36253;SDS011;22291;52.250;21.228;2023-04-15T07:41:09;15.48;;;7.17;;
36253;SDS011;22291;52.250;21.228;2023-04-15T07:43:36;9.68;;;7.15;;
36253;SDS011;22291;52.250;21.228;2023-04-15T07:46:03;9.85;;;6.33;;
36253;SDS011;22291;52.250;21.228;2023-04-15T07:48:30;7.22;;;5.85;;
36253;SDS011;22291;52.250;21.228;2023-04-15T07:50:56;12.30;;;6.17;;
36253;SDS011;22291;52.250;21.228;2023-04-15T07:53:25;8.75;;;6.90;;
36253;SDS011;22291;52.250;21.228;2023-04-15T07:55:51;8.93;;;7.35;;
36253;SDS011;22291;52.250;21.228;2023-04-15T07:58:18;8.90;;;7.80;;
36253;SDS011;22291;52.250;21.228;2023-04-15T08:00:45;8.73;;;6.40;;
36253;SDS011;22291;52.250;21.228;2023-04-15T08:03:11;7.20;;;5.47;;
36253;SDS011;22291;52.250;21.228;2023-04-15T08:05:38;10.30;;;6.30;;
36253;SDS011;22291;52.250;21.228;2023-04-15T08:08:04;10.03;;;6.95;;
36253;SDS011;22291;52.250;21.228;2023-04-15T08:10:30;12.50;;;10.48;;
36253;SDS011;22291;52.250;21.228;2023-04-15T08:12:57;12.47;;;11.18;;
36253;SDS011;22291;52.250;21.228;2023-04-15T08:15:23;13.50;;;12.35;;
36253;SDS011;22291;52.250;21.228;2023-04-15T08:17:51;6.67;;;5.20;;
36253;SDS011;22291;52.250;21.228;2023-04-15T08:20:18;26.95;;;25.00;;
36253;SDS011;22291;52.250;21.228;2023-04-15T08:22:45;17.10;;;15.45;;
36253;SDS011;22291;52.250;21.228;2023-04-15T08:25:13;23.15;;;21.37;;
36253;SDS011;22291;52.250;21.228;2023-04-15T08:27:39;6.58;;;4.60;;
36253;SDS011;22291;52.250;21.228;2023-04-15T08:30:07;7.70;;;5.78;;
36253;SDS011;22291;52.250;21.228;2023-04-15T08:32:36;21.73;;;20.00;;
36253;SDS011;22291;52.250;21.228;2023-04-15T08:35:03;67.00;;;62.40;;
36253;SDS011;22291;52.250;21.228;2023-04-15T08:37:32;13.18;;;12.05;;
36253;SDS011;22291;52.250;21.228;2023-04-15T08:39:58;9.70;;;6.53;;
36253;SDS011;22291;52.250;21.228;2023-04-15T08:42:30;11.15;;;10.15;;
36253;SDS011;22291;52.250;21.228;2023-04-15T08:44:59;8.85;;;5.42;;
36253;SDS011;22291;52.250;21.228;2023-04-15T08:47:29;6.50;;;5.08;;
36253;SDS011;22291;52.250;21.228;2023-04-15T08:49:56;8.23;;;5.70;;
36253;SDS011;22291;52.250;21.228;2023-04-15T08:52:29;7.53;;;4.80;;
36253;SDS011;22291;52.250;21.228;2023-04-15T08:54:56;35.45;;;32.98;;
36253;SDS011;22291;52.250;21.228;2023-04-15T08:57:25;7.47;;;5.92;;
36253;SDS011;22291;52.250;21.228;2023-04-15T08:59:54;8.07;;;5.60;;
36253;SDS011;22291;52.250;21.228;2023-04-15T09:02:22;30.75;;;28.73;;
36253;SDS011;22291;52.250;21.228;2023-04-15T09:04:50;73.43;;;68.53;;
36253;SDS011;22291;52.250;21.228;2023-04-15T09:07:18;40.45;;;37.78;;
36253;SDS011;22291;52.250;21.228;2023-04-15T09:09:45;8.30;;;6.17;;
36253;SDS011;22291;52.250;21.228;2023-04-15T09:12:12;8.45;;;7.37;;
36253;SDS011;22291;52.250;21.228;2023-04-15T09:14:39;6.05;;;4.40;;
36253;SDS011;22291;52.250;21.228;2023-04-15T09:17:08;6.00;;;4.78;;
36253;SDS011;22291;52.250;21.228;2023-04-15T09:22:02;9.10;;;4.70;;
36253;SDS011;22291;52.250;21.228;2023-04-15T09:24:37;6.25;;;3.98;;
36253;SDS011;22291;52.250;21.228;2023-04-15T09:27:06;5.37;;;4.53;;
36253;SDS011;22291;52.250;21.228;2023-04-15T09:29:32;8.38;;;4.87;;
36253;SDS011;22291;52.250;21.228;2023-04-15T09:32:09;6.33;;;4.80;;
36253;SDS011;22291;52.250;21.228;2023-04-15T09:34:40;4.90;;;4.33;;
36253;SDS011;22291;52.250;21.228;2023-04-15T09:37:06;6.95;;;4.65;;
36253;SDS011;22291;52.250;21.228;2023-04-15T09:39:44;5.78;;;4.55;;
36253;SDS011;22291;52.250;21.228;2023-04-15T09:42:14;5.53;;;4.40;;
36253;SDS011;22291;52.250;21.228;2023-04-15T09:44:43;7.00;;;4.45;;
36253;SDS011;22291;52.250;21.228;2023-04-15T09:47:25;5.67;;;4.53;;
36253;SDS011;22291;52.250;21.228;2023-04-15T09:49:56;6.37;;;5.03;;
36253;SDS011;22291;52.250;21.228;2023-04-15T09:52:25;7.20;;;4.33;;
36253;SDS011;22291;52.250;21.228;2023-04-15T09:54:53;6.60;;;4.80;;
36253;SDS011;22291;52.250;21.228;2023-04-15T09:57:23;4.70;;;3.45;;
36253;SDS011;22291;52.250;21.228;2023-04-15T09:59:50;5.65;;;4.35;;
36253;SDS011;22291;52.250;21.228;2023-04-15T10:02:17;5.22;;;4.37;;
36253;SDS011;22291;52.250;21.228;2023-04-15T10:04:45;5.15;;;4.37;;
36253;SDS011;22291;52.250;21.228;2023-04-15T10:07:14;5.85;;;4.60;;
36253;SDS011;22291;52.250;21.228;2023-04-15T10:09:45;5.85;;;4.97;;
36253;SDS011;22291;52.250;21.228;2023-04-15T10:12:14;6.37;;;4.27;;
36253;SDS011;22291;52.250;21.228;2023-04-15T10:14:51;5.87;;;4.58;;
36253;SDS011;22291;52.250;21.228;2023-04-15T10:17:17;5.92;;;4.62;;
36253;SDS011;22291;52.250;21.228;2023-04-15T10:19:47;6.03;;;4.60;;
36253;SDS011;22291;52.250;21.228;2023-04-15T10:22:18;4.95;;;4.10;;
36253;SDS011;22291;52.250;21.228;2023-04-15T10:24:45;8.38;;;4.53;;
36253;SDS011;22291;52.250;21.228;2023-04-15T10:27:15;6.78;;;6.17;;
36253;SDS011;22291;52.250;21.228;2023-04-15T10:29:43;6.97;;;4.55;;
36253;SDS011;22291;52.250;21.228;2023-04-15T10:32:13;6.25;;;4.35;;
36253;SDS011;22291;52.250;21.228;2023-04-15T10:34:46;5.40;;;4.00;;
36253;SDS011;22291;52.250;21.228;2023-04-15T10:37:32;7.85;;;4.20;;
36253;SDS011;22291;52.250;21.228;2023-04-15T10:43:02;6.60;;;4.12;;
36253;SDS011;22291;52.250;21.228;2023-04-15T10:45:32;5.70;;;4.53;;
36253;SDS011;22291;52.250;21.228;2023-04-15T10:48:01;11.45;;;4.60;;
36253;SDS011;22291;52.250;21.228;2023-04-15T10:50:31;4.72;;;3.37;;
36253;SDS011;22291;52.250;21.228;2023-04-15T10:53:01;5.80;;;4.33;;
36253;SDS011;22291;52.250;21.228;2023-04-15T10:55:33;7.05;;;5.03;;
36253;SDS011;22291;52.250;21.228;2023-04-15T10:58:00;4.70;;;3.75;;
36253;SDS011;22291;52.250;21.228;2023-04-15T11:00:28;5.42;;;3.98;;
36253;SDS011;22291;52.250;21.228;2023-04-15T11:02:58;7.37;;;4.45;;
36253;SDS011;22291;52.250;21.228;2023-04-15T11:05:49;6.28;;;3.67;;
36253;SDS011;22291;52.250;21.228;2023-04-15T11:08:17;5.97;;;3.65;;
36253;SDS011;22291;52.250;21.228;2023-04-15T11:13:18;5.08;;;4.10;;
36253;SDS011;22291;52.250;21.228;2023-04-15T11:15:48;4.10;;;3.42;;
36253;SDS011;22291;52.250;21.228;2023-04-15T11:20:54;3.85;;;3.47;;
36253;SDS011;22291;52.250;21.228;2023-04-15T11:23:31;5.58;;;4.25;;
36253;SDS011;22291;52.250;21.228;2023-04-15T11:26:08;5.78;;;3.83;;
36253;SDS011;22291;52.250;21.228;2023-04-15T11:28:40;6.03;;;4.60;;
36253;SDS011;22291;52.250;21.228;2023-04-15T11:31:13;6.70;;;3.90;;
36253;SDS011;22291;52.250;21.228;2023-04-15T11:33:46;7.00;;;4.72;;
36253;SDS011;22291;52.250;21.228;2023-04-15T11:36:23;16.40;;;7.87;;
36253;SDS011;22291;52.250;21.228;2023-04-15T11:38:52;17.25;;;10.55;;
36253;SDS011;22291;52.250;21.228;2023-04-15T11:41:19;7.15;;;4.97;;
36253;SDS011;22291;52.250;21.228;2023-04-15T11:43:49;8.50;;;4.97;;
36253;SDS011;22291;52.250;21.228;2023-04-15T11:46:16;6.03;;;4.20;;
36253;SDS011;22291;52.250;21.228;2023-04-15T11:48:44;6.20;;;3.90;;
36253;SDS011;22291;52.250;21.228;2023-04-15T11:51:12;4.17;;;3.30;;
36253;SDS011;22291;52.250;21.228;2023-04-15T11:53:46;6.00;;;3.58;;
36253;SDS011;22291;52.250;21.228;2023-04-15T11:56:19;4.62;;;4.05;;
36253;SDS011;22291;52.250;21.228;2023-04-15T11:58:57;4.58;;;3.40;;
36253;SDS011;22291;52.250;21.228;2023-04-15T12:04:14;4.23;;;3.57;;
36253;SDS011;22291;52.250;21.228;2023-04-15T12:06:37;6.03;;;3.42;;
36253;SDS011;22291;52.250;21.228;2023-04-15T12:09:07;5.37;;;4.05;;
36253;SDS011;22291;52.250;21.228;2023-04-15T12:11:45;5.33;;;4.03;;
36253;SDS011;22291;52.250;21.228;2023-04-15T12:14:29;5.22;;;3.50;;
36253;SDS011;22291;52.250;21.228;2023-04-15T12:17:02;3.52;;;3.20;;
36253;SDS011;22291;52.250;21.228;2023-04-15T12:19:39;5.25;;;3.65;;
36253;SDS011;22291;52.250;21.228;2023-04-15T12:22:10;3.27;;;2.83;;
36253;SDS011;22291;52.250;21.228;2023-04-15T12:24:42;4.15;;;3.42;;
36253;SDS011;22291;52.250;21.228;2023-04-15T12:27:11;5.55;;;3.35;;
36253;SDS011;22291;52.250;21.228;2023-04-15T12:29:40;4.42;;;4.00;;
36253;SDS011;22291;52.250;21.228;2023-04-15T12:32:09;5.05;;;2.92;;
36253;SDS011;22291;52.250;21.228;2023-04-15T12:37:18;7.58;;;4.00;;
36253;SDS011;22291;52.250;21.228;2023-04-15T12:39:46;9.18;;;4.12;;
36253;SDS011;22291;52.250;21.228;2023-04-15T12:42:15;4.97;;;3.83;;
36253;SDS011;22291;52.250;21.228;2023-04-15T12:44:43;4.22;;;3.35;;
36253;SDS011;22291;52.250;21.228;2023-04-15T12:47:10;5.20;;;3.37;;
36253;SDS011;22291;52.250;21.228;2023-04-15T12:49:37;10.95;;;5.75;;
36253;SDS011;22291;52.250;21.228;2023-04-15T12:52:05;11.73;;;6.92;;
36253;SDS011;22291;52.250;21.228;2023-04-15T12:54:32;14.43;;;8.13;;
36253;SDS011;22291;52.250;21.228;2023-04-15T12:56:59;10.88;;;7.08;;
36253;SDS011;22291;52.250;21.228;2023-04-15T12:59:26;10.50;;;7.87;;
36253;SDS011;22291;52.250;21.228;2023-04-15T13:01:53;8.60;;;6.22;;
36253;SDS011;22291;52.250;21.228;2023-04-15T13:04:20;8.23;;;6.60;;
36253;SDS011;22291;52.250;21.228;2023-04-15T13:06:47;8.30;;;6.03;;
36253;SDS011;22291;52.250;21.228;2023-04-15T13:09:15;13.65;;;10.32;;
36253;SDS011;22291;52.250;21.228;2023-04-15T13:11:41;8.43;;;5.80;;
36253;SDS011;22291;52.250;21.228;2023-04-15T13:14:08;6.80;;;5.50;;
36253;SDS011;22291;52.250;21.228;2023-04-15T13:16:37;10.05;;;6.00;;
36253;SDS011;22291;52.250;21.228;2023-04-15T13:19:03;5.40;;;4.22;;
36253;SDS011;22291;52.250;21.228;2023-04-15T13:21:32;6.28;;;3.87;;
36253;SDS011;22291;52.250;21.228;2023-04-15T13:23:59;4.33;;;3.15;;
36253;SDS011;22291;52.250;21.228;2023-04-15T13:26:26;10.70;;;4.50;;
36253;SDS011;22291;52.250;21.228;2023-04-15T13:28:53;8.23;;;5.25;;
36253;SDS011;22291;52.250;21.228;2023-04-15T13:31:21;6.72;;;4.60;;
36253;SDS011;22291;52.250;21.228;2023-04-15T13:33:47;5.65;;;4.28;;
36253;SDS011;22291;52.250;21.228;2023-04-15T13:36:13;13.15;;;5.33;;
36253;SDS011;22291;52.250;21.228;2023-04-15T13:38:40;12.20;;;5.78;;
36253;SDS011;22291;52.250;21.228;2023-04-15T13:41:07;7.03;;;5.22;;
36253;SDS011;22291;52.250;21.228;2023-04-15T13:43:33;12.37;;;6.00;;
36253;SDS011;22291;52.250;21.228;2023-04-15T13:45:59;11.38;;;6.28;;
36253;SDS011;22291;52.250;21.228;2023-04-15T13:48:26;12.58;;;6.28;;
36253;SDS011;22291;52.250;21.228;2023-04-15T13:50:53;9.00;;;5.90;;
36253;SDS011;22291;52.250;21.228;2023-04-15T13:53:19;79.90;;;74.60;;
36253;SDS011;22291;52.250;21.228;2023-04-15T13:55:45;7.40;;;5.05;;
36253;SDS011;22291;52.250;21.228;2023-04-15T13:58:12;6.25;;;4.37;;
36253;SDS011;22291;52.250;21.228;2023-04-15T14:00:39;5.17;;;3.87;;
36253;SDS011;22291;52.250;21.228;2023-04-15T14:03:05;8.23;;;3.42;;
36253;SDS011;22291;52.250;21.228;2023-04-15T14:05:32;5.08;;;3.67;;
36253;SDS011;22291;52.250;21.228;2023-04-15T14:07:59;6.72;;;3.58;;
36253;SDS011;22291;52.250;21.228;2023-04-15T14:10:26;5.75;;;3.27;;
36253;SDS011;22291;52.250;21.228;2023-04-15T14:12:53;3.27;;;2.45;;
36253;SDS011;22291;52.250;21.228;2023-04-15T14:15:21;4.58;;;4.10;;
36253;SDS011;22291;52.250;21.228;2023-04-15T14:17:47;6.45;;;5.85;;
36253;SDS011;22291;52.250;21.228;2023-04-15T14:20:13;14.93;;;13.95;;
36253;SDS011;22291;52.250;21.228;2023-04-15T14:22:40;16.05;;;6.92;;
36253;SDS011;22291;52.250;21.228;2023-04-15T14:25:07;6.75;;;6.05;;
36253;SDS011;22291;52.250;21.228;2023-04-15T14:27:35;33.50;;;31.45;;
36253;SDS011;22291;52.250;21.228;2023-04-15T14:30:01;56.48;;;52.93;;
36253;SDS011;22291;52.250;21.228;2023-04-15T14:32:27;73.97;;;69.27;;
36253;SDS011;22291;52.250;21.228;2023-04-15T14:34:53;77.67;;;72.72;;
36253;SDS011;22291;52.250;21.228;2023-04-15T14:37:20;78.28;;;73.20;;
36253;SDS011;22291;52.250;21.228;2023-04-15T14:39:46;79.03;;;73.92;;
36253;SDS011;22291;52.250;21.228;2023-04-15T14:42:12;65.10;;;61.10;;